Time;durP1;ratioP1;P1;durP2;ratioP2;P2;SDS_P1;SDS_P2;PMS_P1;PMS_P2;Temp;Humidity;BMP_temperature;BMP_pressure;BME280_temperature;BME280_humidity;BME280_pressure;Samples;Min_cycle;Max_cycle;Signal;HPM_P1;HPM_P2
2021/11/02 00:02:03;;;;;;;1.80;1.23;;;14.00;92.60;;;;;;5036103;28;20033;-74
2021/11/02 00:04:29;;;;;;;1.35;1.00;;;14.00;92.70;;;;;;5036022;28;20033;-74
2021/11/02 00:06:55;;;;;;;1.45;1.00;;;14.00;92.60;;;;;;5036457;28;20539;-75
2021/11/02 00:09:25;;;;;;;3.20;1.23;;;14.00;92.70;;;;;;5035989;28;20079;-74
2021/11/02 00:11:51;;;;;;;5.70;1.50;;;14.00;92.90;;;;;;5019375;28;20042;-73
2021/11/02 00:14:17;;;;;;;4.85;1.65;;;14.00;92.90;;;;;;5035975;28;20539;-73
2021/11/02 00:16:45;;;;;;;4.65;1.85;;;14.00;93.00;;;;;;5035950;28;20101;-73
2021/11/02 00:19:10;;;;;;;3.25;1.50;;;14.10;93.00;;;;;;5036122;28;20119;-74
2021/11/02 00:21:42;;;;;;;4.72;1.80;;;14.00;93.30;;;;;;5035817;28;20448;-73
2021/11/02 00:26:37;;;;;;;6.65;1.73;;;14.00;93.40;;;;;;5036028;28;20146;-73
2021/11/02 00:29:03;;;;;;;6.50;1.95;;;14.00;93.10;;;;;;5035892;28;20048;-74
2021/11/02 00:31:29;;;;;;;3.72;1.90;;;14.00;92.90;;;;;;5035778;28;20061;-74
2021/11/02 00:33:54;;;;;;;8.50;3.10;;;14.10;93.20;;;;;;5035451;28;20053;-74
2021/11/02 00:36:21;;;;;;;14.93;4.45;;;14.10;93.00;;;;;;5035364;28;20055;-74
2021/11/02 00:38:47;;;;;;;15.07;4.15;;;14.10;93.40;;;;;;5034783;28;20042;-75
2021/11/02 00:41:13;;;;;;;18.70;5.25;;;14.20;95.00;;;;;;5035414;28;20532;-74
2021/11/02 00:43:38;;;;;;;17.40;5.18;;;14.20;96.40;;;;;;5033968;28;20026;-74
2021/11/02 00:46:05;;;;;;;15.38;4.10;;;14.20;93.30;;;;;;5034869;28;20048;-73
2021/11/02 00:48:30;;;;;;;9.10;3.22;;;14.10;93.40;;;;;;5034934;28;20508;-73
2021/11/02 00:50:57;;;;;;;12.10;3.00;;;14.10;93.50;;;;;;5035257;28;20069;-73
2021/11/02 00:53:23;;;;;;;18.35;3.80;;;14.10;93.60;;;;;;5035397;28;20025;-75
2021/11/02 00:55:49;;;;;;;16.90;4.20;;;14.10;93.60;;;;;;5035369;28;20030;-73
2021/11/02 00:58:15;;;;;;;10.85;4.10;;;14.10;93.90;;;;;;5035105;28;20463;-74
2021/11/02 01:00:42;;;;;;;9.07;3.65;;;14.20;94.20;;;;;;5034668;28;20028;-73
2021/11/02 01:03:09;;;;;;;11.10;3.38;;;14.20;93.60;;;;;;5035148;28;20021;-73
2021/11/02 01:05:35;;;;;;;9.75;3.25;;;14.20;93.90;;;;;;5034877;28;20053;-75
2021/11/02 01:08:02;;;;;;;16.23;3.28;;;14.10;94.10;;;;;;5035106;28;20029;-74
2021/11/02 01:10:28;;;;;;;13.30;3.47;;;14.20;93.50;;;;;;5034896;28;20037;-73
2021/11/02 01:12:54;;;;;;;9.32;3.38;;;14.20;93.40;;;;;;5034982;28;20018;-74
2021/11/02 01:15:27;;;;;;;13.75;3.58;;;14.20;93.70;;;;;;5034700;28;20455;-74
2021/11/02 01:17:55;;;;;;;19.70;4.38;;;14.20;93.80;;;;;;5034470;28;20021;-74
2021/11/02 01:20:21;;;;;;;19.98;6.07;;;14.20;93.70;;;;;;5034622;28;20036;-74
2021/11/02 01:22:47;;;;;;;14.32;5.07;;;14.10;93.70;;;;;;5034711;28;20034;-73
2021/11/02 01:25:15;;;;;;;11.00;5.50;;;14.10;93.50;;;;;;5034388;28;20043;-73
2021/11/02 01:27:42;;;;;;;15.73;5.65;;;14.20;93.30;;;;;;5034618;28;20018;-74
2021/11/02 01:30:09;;;;;;;14.88;4.75;;;14.20;93.10;;;;;;5034670;28;20022;-73
2021/11/02 01:32:35;;;;;;;11.52;5.22;;;14.20;93.10;;;;;;5034646;28;20374;-73
2021/11/02 01:35:01;;;;;;;10.55;5.25;;;14.20;93.40;;;;;;5034566;28;20021;-74
2021/11/02 01:37:30;;;;;;;11.98;4.28;;;14.10;93.30;;;;;;5034342;28;20492;-73
2021/11/02 01:39:56;;;;;;;10.48;4.95;;;14.10;93.30;;;;;;5034126;28;20013;-76
2021/11/02 01:42:25;;;;;;;16.17;6.18;;;14.10;93.10;;;;;;5034154;28;20087;-74
2021/11/02 01:44:53;;;;;;;9.30;4.90;;;14.10;93.20;;;;;;5034171;28;20029;-74
2021/11/02 01:47:20;;;;;;;10.27;4.38;;;14.10;93.00;;;;;;5034395;28;20087;-73
2021/11/02 01:49:46;;;;;;;7.65;4.70;;;14.20;92.80;;;;;;5033663;28;20492;-73
2021/11/02 01:52:12;;;;;;;14.30;5.00;;;14.20;92.80;;;;;;5032858;28;20025;-73
2021/11/02 01:54:38;;;;;;;13.07;5.40;;;14.20;92.80;;;;;;5034193;28;20017;-75
2021/11/02 01:57:04;;;;;;;10.27;4.22;;;14.20;92.80;;;;;;5033999;28;20060;-74
2021/11/02 01:59:33;;;;;;;9.55;4.70;;;14.20;92.70;;;;;;5030865;28;20033;-74
2021/11/02 02:02:43;;;;;;;7.10;4.43;;;14.20;92.70;;;;;;5031164;28;20025;-73
2021/11/02 02:05:37;;;;;;;7.95;3.63;;;14.20;92.90;;;;;;5032064;28;20107;-74
2021/11/02 02:08:05;;;;;;;9.93;3.63;;;14.10;92.90;;;;;;5033466;28;20022;-74
2021/11/02 02:11:06;;;;;;;8.38;3.72;;;14.10;93.00;;;;;;5033912;28;20030;-73
2021/11/02 02:13:41;;;;;;;10.13;3.42;;;14.10;92.90;;;;;;5033366;28;20026;-75
2021/11/02 02:16:23;;;;;;;10.30;3.60;;;14.10;93.20;;;;;;5033415;28;20025;-73
2021/11/02 02:19:05;;;;;;;6.95;3.47;;;14.10;93.30;;;;;;5033520;28;20025;-73
2021/11/02 02:21:42;;;;;;;7.93;3.67;;;14.10;93.40;;;;;;5033446;28;20029;-74
2021/11/02 02:24:22;;;;;;;7.18;3.13;;;14.00;93.50;;;;;;5033252;28;20466;-75
2021/11/02 02:27:11;;;;;;;8.07;3.35;;;14.10;93.60;;;;;;5033532;28;20112;-74
2021/11/02 02:29:42;;;;;;;6.78;3.50;;;14.10;93.20;;;;;;5032957;28;20026;-74
2021/11/02 02:32:15;;;;;;;8.65;3.10;;;14.10;93.30;;;;;;5033609;28;20029;-73
2021/11/02 02:34:41;;;;;;;6.78;3.08;;;14.10;93.20;;;;;;5033662;28;20025;-74
2021/11/02 02:37:09;;;;;;;7.18;3.08;;;14.10;93.50;;;;;;5033247;28;20041;-73
2021/11/02 02:39:35;;;;;;;7.97;3.10;;;14.10;93.60;;;;;;5033194;28;20056;-74
2021/11/02 02:42:01;;;;;;;5.38;2.83;;;14.10;93.50;;;;;;5033201;28;20026;-73
2021/11/02 02:44:28;;;;;;;7.47;3.08;;;14.10;93.60;;;;;;5032726;28;20600;-73
2021/11/02 02:46:55;;;;;;;4.82;2.70;;;14.00;93.80;;;;;;5032812;28;20033;-74
2021/11/02 02:49:22;;;;;;;6.38;3.03;;;14.00;93.90;;;;;;5032746;28;20386;-73
2021/11/02 02:51:49;;;;;;;6.97;2.70;;;14.00;93.80;;;;;;5031455;28;20486;-74
2021/11/02 02:54:17;;;;;;;7.63;2.80;;;14.00;93.80;;;;;;5031877;28;20017;-73
2021/11/02 02:56:45;;;;;;;5.78;2.08;;;14.00;93.80;;;;;;5033010;28;20025;-74
2021/11/02 02:59:12;;;;;;;3.35;2.00;;;14.00;93.70;;;;;;5032446;28;20099;-72
2021/11/02 03:01:38;;;;;;;5.20;2.45;;;14.00;93.60;;;;;;5032859;28;20095;-72
2021/11/02 03:04:07;;;;;;;7.30;1.83;;;14.00;93.70;;;;;;5032774;28;20127;-73
2021/11/02 03:06:37;;;;;;;2.55;1.45;;;14.00;93.60;;;;;;5033107;28;20037;-74
2021/11/02 03:09:05;;;;;;;2.60;0.95;;;14.00;93.60;;;;;;5031919;28;20030;-73
2021/11/02 03:11:32;;;;;;;2.00;0.90;;;13.90;93.40;;;;;;5032876;28;20104;-73
2021/11/02 03:14:02;;;;;;;1.42;0.75;;;14.00;93.20;;;;;;5032876;28;20021;-74
2021/11/02 03:17:13;;;;;;;3.60;0.43;;;13.90;93.10;;;;;;5032749;28;20065;-75
2021/11/02 03:19:59;;;;;;;0.85;0.40;;;13.90;92.90;;;;;;5032070;28;20029;-73
2021/11/02 03:54:50;;;;;;;0.30;0.30;;;13.50;92.50;;;;;;5032536;28;20493;-73
2021/11/02 03:57:36;;;;;;;0.65;0.43;;;13.40;92.40;;;;;;5032504;28;20481;-73
2021/11/02 04:25:57;;;;;;;0.30;0.20;;;13.20;92.70;;;;;;5035637;28;20032;-75
2021/11/02 05:08:47;;;;;;;0.65;0.25;;;13.10;92.90;;;;;;5034902;28;20075;-74
2021/11/02 05:47:35;;;;;;;2.55;0.80;;;13.20;93.00;;;;;;5034016;28;20160;-72
2021/11/02 05:55:24;;;;;;;3.42;0.70;;;13.10;93.10;;;;;;5034384;28;20111;-74
2021/11/02 06:00:41;;;;;;;0.85;0.50;;;13.10;93.10;;;;;;5034325;28;20033;-72
2021/11/02 06:03:25;;;;;;;0.80;0.60;;;13.20;93.20;;;;;;5034012;28;20406;-72
2021/11/02 06:06:03;;;;;;;2.17;0.90;;;13.20;93.20;;;;;;5033553;28;20128;-72
2021/11/02 06:28:59;;;;;;;0.63;0.20;;;13.10;92.50;;;;;;5033583;28;20516;-72
2021/11/02 06:50:45;;;;;;;4.00;0.10;;;13.00;91.50;;;;;;5033353;28;20088;-73
2021/11/02 07:18:47;;;;;;;1.08;0.52;;;;;;;;;;5032787;28;20486;-72
2021/11/02 07:21:26;;;;;;;1.02;0.50;;;12.90;99.90;;;;;;5032555;28;20458;-72
2021/11/02 07:27:07;;;;;;;0.88;0.30;;;12.80;97.90;;;;;;5030828;28;20030;-72
2021/11/02 07:30:25;;;;;;;0.90;0.32;;;12.80;97.30;;;;;;5031566;28;20024;-72
2021/11/02 08:45:38;;;;;;;2.08;0.80;;;;;;;;;;5034885;28;20140;-77
2021/11/02 08:48:05;;;;;;;1.48;0.90;;;;;;;;;;5035301;28;20037;-78
2021/11/02 08:50:43;;;;;;;1.27;0.77;;;;;;;;;;5033828;28;20025;-76
2021/11/02 08:53:12;;;;;;;0.90;0.60;;;;;;;;;;5034893;28;20040;-75
2021/11/02 08:55:41;;;;;;;0.50;0.47;;;;;;;;;;5039767;28;20421;-78
2021/11/02 08:58:07;;;;;;;0.98;0.50;;;;;;;;;;5033767;28;20116;-75
2021/11/02 09:00:34;;;;;;;1.13;0.50;;;;;;;;;;5032186;28;20028;-75
2021/11/02 09:03:20;;;;;;;0.93;0.45;;;;;;;;;;5037667;28;20525;-74
2021/11/02 09:05:50;;;;;;;0.98;0.70;;;;;;;;;;5054309;28;20053;-74
2021/11/02 09:08:17;;;;;;;0.80;0.65;;;;;;;;;;5038581;28;20025;-75
2021/11/02 09:10:43;;;;;;;0.90;0.60;;;;;;;;;;5028016;28;20037;-77
2021/11/02 09:13:10;;;;;;;2.55;0.50;;;;;;;;;;5033889;28;20512;-79
2021/11/02 09:15:37;;;;;;;0.90;0.40;;;;;;;;;;5031205;28;20025;-77
2021/11/02 09:18:04;;;;;;;1.50;0.40;;;;;;;;;;5032275;28;20029;-78
2021/11/02 09:20:31;;;;;;;0.95;0.60;;;;;;;;;;5034192;28;20104;-78
2021/11/02 09:22:57;;;;;;;1.10;0.40;;;;;;;;;;5034368;28;20033;-77
2021/11/02 09:25:24;;;;;;;4.50;0.50;;;;;;;;;;5034178;28;20156;-76
2021/11/02 09:27:50;;;;;;;2.22;0.50;;;;;;;;;;5033669;28;20026;-79
2021/11/02 09:30:17;;;;;;;2.10;0.52;;;;;;;;;;5033588;28;20026;-79
2021/11/02 09:32:44;;;;;;;1.10;0.70;;;;;;;;;;5033848;28;20029;-79
2021/11/02 09:35:12;;;;;;;3.20;0.63;;;13.40;99.90;;;;;;5033963;28;20021;-80
2021/11/02 09:37:44;;;;;;;1.42;0.40;;;13.50;99.90;;;;;;5040172;28;20032;-77
2021/11/02 09:40:14;;;;;;;0.40;0.40;;;13.50;99.90;;;;;;5043902;28;20020;-75
2021/11/02 09:43:01;;;;;;;0.55;0.40;;;13.50;99.50;;;;;;5051936;28;20025;-76
2021/11/02 09:46:11;;;;;;;2.63;0.50;;;13.60;98.90;;;;;;5009561;28;20046;-78
2021/11/02 09:49:07;;;;;;;3.97;0.40;;;13.60;97.90;;;;;;4974392;28;20035;-73
2021/11/02 09:51:54;;;;;;;0.82;0.40;;;13.60;97.50;;;;;;4975152;28;20026;-76
2021/11/02 09:54:42;;;;;;;0.60;0.40;;;13.60;97.50;;;;;;4974949;28;20035;-79
2021/11/02 09:57:19;;;;;;;0.52;0.40;;;13.70;97.20;;;;;;4974758;28;20062;-79
2021/11/02 09:59:52;;;;;;;4.95;0.60;;;13.70;97.20;;;;;;4975436;28;20022;-80
2021/11/02 10:02:43;;;;;;;4.85;0.43;;;13.70;97.10;;;;;;4975129;28;20029;-78
2021/11/02 10:05:23;;;;;;;1.40;0.40;;;13.80;97.30;;;;;;4974938;28;20126;-77
2021/11/02 10:08:28;;;;;;;0.80;0.45;;;13.80;97.30;;;;;;4974702;28;20054;-79
2021/11/02 10:11:00;;;;;;;0.63;0.50;;;13.80;96.60;;;;;;4988356;28;20506;-80
2021/11/02 10:13:36;;;;;;;1.00;0.60;;;;;;;;;;4973609;28;20027;-81
2021/11/02 10:16:04;;;;;;;2.35;0.50;;;;;;;;;;4974380;28;20046;-76
2021/11/02 10:19:16;;;;;;;0.82;0.40;;;14.00;99.90;;;;;;4973726;28;20513;-78
2021/11/02 10:22:08;;;;;;;0.60;0.30;;;;;;;;;;4972718;28;20113;-80
2021/11/02 10:24:57;;;;;;;0.77;0.40;;;;;;;;;;4980396;28;20046;-76
2021/11/02 10:27:30;;;;;;;0.90;0.28;;;;;;;;;;4976509;28;20047;-80
2021/11/02 10:30:13;;;;;;;2.17;0.20;;;;;;;;;;4974375;28;20458;-80
2021/11/02 10:32:41;;;;;;;3.08;0.40;;;;;;;;;;4988527;28;20031;-78
2021/11/02 10:35:20;;;;;;;1.15;0.57;;;;;;;;;;4974613;28;20069;-77
2021/11/02 10:38:03;;;;;;;4.20;1.48;;;14.50;99.90;;;;;;4974008;28;20034;-79
2021/11/02 10:40:39;;;;;;;2.22;0.50;;;14.50;94.10;;;;;;4973939;28;20027;-79
2021/11/02 10:43:39;;;;;;;0.75;0.20;;;14.50;94.30;;;;;;4973472;28;20015;-76
2021/11/02 10:46:10;;;;;;;1.00;0.35;;;14.60;94.70;;;;;;4974545;28;20395;-79
2021/11/02 10:48:47;;;;;;;0.38;0.20;;;14.60;94.40;;;;;;4973597;28;20389;-78
2021/11/02 10:51:23;;;;;;;0.77;0.30;;;14.60;94.20;;;;;;4973880;28;20574;-76
2021/11/02 10:54:19;;;;;;;1.05;0.22;;;14.60;94.40;;;;;;4973954;28;20033;-77
2021/11/02 10:57:04;;;;;;;0.90;0.38;;;14.60;94.10;;;;;;4974302;28;20376;-78
2021/11/02 10:59:31;;;;;;;0.68;0.30;;;14.60;94.10;;;;;;4973832;28;20018;-80
2021/11/02 11:01:58;;;;;;;1.45;0.40;;;14.60;94.10;;;;;;4971743;28;20484;-76
2021/11/02 11:04:31;;;;;;;2.42;0.30;;;14.60;93.20;;;;;;4975584;28;20054;-77
2021/11/02 11:06:58;;;;;;;0.40;0.25;;;14.70;93.00;;;;;;4992575;28;20566;-77
2021/11/02 11:09:30;;;;;;;0.68;0.30;;;14.60;92.70;;;;;;4992298;28;20030;-78
2021/11/02 11:11:59;;;;;;;0.20;0.20;;;14.70;92.40;;;;;;4993138;28;20034;-76
2021/11/02 11:14:31;;;;;;;2.20;0.90;;;14.60;92.60;;;;;;4990909;28;20025;-76
2021/11/02 11:16:58;;;;;;;0.30;0.20;;;14.60;92.50;;;;;;4991333;28;20026;-77
2021/11/02 11:19:29;;;;;;;0.90;0.52;;;14.70;92.50;;;;;;4993094;28;20158;-78
2021/11/02 11:21:59;;;;;;;1.33;0.57;;;14.60;92.80;;;;;;4994705;28;20019;-76
2021/11/02 11:24:28;;;;;;;0.45;0.38;;;14.70;92.80;;;;;;4996997;28;20034;-77
2021/11/02 11:26:55;;;;;;;3.90;0.40;;;14.70;93.00;;;;;;4996181;28;20039;-78
2021/11/02 11:29:22;;;;;;;4.07;0.47;;;14.70;93.30;;;;;;4996449;28;20061;-78
2021/11/02 11:31:53;;;;;;;1.55;0.50;;;14.80;93.30;;;;;;4996920;28;20030;-78
2021/11/02 11:34:34;;;;;;;0.75;0.45;;;14.80;93.10;;;;;;5011926;28;20143;-77
2021/11/02 11:37:06;;;;;;;1.02;0.40;;;14.90;93.20;;;;;;4995954;28;20038;-78
2021/11/02 11:39:32;;;;;;;0.73;0.30;;;15.00;92.00;;;;;;4996147;28;20030;-76
2021/11/02 11:41:59;;;;;;;0.40;0.20;;;15.10;94.90;;;;;;4995402;28;20605;-77
2021/11/02 11:44:26;;;;;;;0.60;0.50;;;;;;;;;;4996084;28;20105;-78
2021/11/02 11:47:09;;;;;;;1.13;0.30;;;;;;;;;;4995884;28;20128;-76
2021/11/02 11:49:37;;;;;;;3.40;0.68;;;15.30;95.30;;;;;;4995629;28;20383;-77
2021/11/02 11:52:05;;;;;;;1.33;0.82;;;15.40;92.90;;;;;;4996074;28;20489;-77
2021/11/02 11:54:56;;;;;;;1.73;0.65;;;15.50;88.20;;;;;;4996768;28;20026;-79
2021/11/02 11:57:33;;;;;;;1.05;0.50;;;15.50;88.90;;;;;;4995927;28;20030;-77
2021/11/02 12:00:10;;;;;;;1.38;0.30;;;15.40;83.70;;;;;;4997154;28;20038;-77
2021/11/02 12:02:48;;;;;;;1.35;0.28;;;15.40;82.70;;;;;;4996150;28;20130;-78
2021/11/02 12:05:18;;;;;;;1.83;0.30;;;15.40;81.10;;;;;;4995300;28;20062;-78
2021/11/02 12:08:08;;;;;;;3.00;0.43;;;15.30;81.50;;;;;;4996571;28;20050;-77
2021/11/02 12:10:35;;;;;;;1.17;0.47;;;15.30;83.30;;;;;;4995744;28;20019;-76
2021/11/02 12:13:06;;;;;;;0.63;0.38;;;15.40;84.60;;;;;;4996578;28;20026;-77
2021/11/02 12:15:39;;;;;;;0.65;0.30;;;15.30;84.10;;;;;;4996125;28;20364;-77
2021/11/02 12:18:07;;;;;;;0.70;0.50;;;15.30;84.20;;;;;;4994402;28;20109;-75
2021/11/02 12:20:35;;;;;;;4.72;0.70;;;15.30;84.60;;;;;;4996645;28;20026;-77
2021/11/02 12:23:15;;;;;;;1.00;0.60;;;15.40;85.60;;;;;;4995190;28;20046;-78
2021/11/02 12:25:51;;;;;;;2.17;0.55;;;15.40;85.00;;;;;;4996310;28;20088;-76
2021/11/02 12:28:36;;;;;;;1.65;0.70;;;15.40;85.60;;;;;;4996123;28;20460;-77
2021/11/02 12:31:07;;;;;;;0.50;0.30;;;15.40;84.80;;;;;;4996321;28;20038;-76
2021/11/02 12:33:35;;;;;;;0.43;0.17;;;15.50;84.10;;;;;;4994980;28;20442;-77
2021/11/02 12:36:04;;;;;;;1.55;0.20;;;15.50;83.70;;;;;;4995912;28;20061;-77
2021/11/02 12:38:33;;;;;;;0.60;0.20;;;15.50;83.10;;;;;;4994875;28;20438;-78
2021/11/02 12:41:00;;;;;;;1.13;0.20;;;15.60;83.30;;;;;;4996029;28;20110;-77
2021/11/02 12:43:29;;;;;;;1.52;0.35;;;15.70;84.10;;;;;;4995668;28;20081;-77
2021/11/02 12:45:57;;;;;;;2.63;0.20;;;15.70;85.80;;;;;;4995979;28;20030;-77
2021/11/02 12:48:24;;;;;;;0.47;0.20;;;15.80;84.00;;;;;;4995801;28;20073;-77
2021/11/02 12:50:51;;;;;;;1.65;0.30;;;15.90;83.40;;;;;;4994851;28;20030;-75
2021/11/02 12:53:18;;;;;;;0.15;0.15;;;16.00;81.60;;;;;;4992319;28;20165;-76
2021/11/02 12:55:45;;;;;;;0.10;0.10;;;16.10;81.40;;;;;;4992933;28;20483;-77
2021/11/02 12:58:11;;;;;;;0.47;0.20;;;16.10;73.90;;;;;;4994426;28;20022;-76
2021/11/02 13:00:59;;;;;;;3.88;0.17;;;16.10;70.80;;;;;;4994993;28;20031;-76
2021/11/02 13:03:29;;;;;;;1.95;0.20;;;16.10;69.60;;;;;;4994250;28;20023;-75
2021/11/02 13:06:07;;;;;;;0.13;0.10;;;16.20;69.10;;;;;;4994714;28;20058;-77
2021/11/02 13:08:40;;;;;;;0.38;0.20;;;16.20;67.60;;;;;;4994622;28;20471;-77
2021/11/02 13:11:11;;;;;;;0.63;0.20;;;16.20;66.70;;;;;;4995157;28;20132;-76
2021/11/02 13:14:01;;;;;;;0.75;0.20;;;16.20;67.90;;;;;;4993986;28;20076;-75
2021/11/02 13:16:28;;;;;;;1.13;0.30;;;16.20;67.10;;;;;;4995442;28;20422;-76
2021/11/02 13:18:55;;;;;;;0.60;0.20;;;16.20;66.50;;;;;;4995182;28;20026;-76
2021/11/02 13:21:33;;;;;;;0.77;0.20;;;16.10;66.60;;;;;;4994942;28;20092;-76
2021/11/02 13:24:03;;;;;;;1.02;0.15;;;16.10;67.70;;;;;;4995104;28;20532;-75
2021/11/02 13:26:30;;;;;;;0.10;0.10;;;16.00;66.70;;;;;;4993781;28;20041;-75
2021/11/02 13:29:15;;;;;;;2.15;0.15;;;16.00;67.40;;;;;;4994905;28;20019;-75
2021/11/02 13:31:45;;;;;;;0.38;0.10;;;16.00;68.50;;;;;;4995268;28;20495;-74
2021/11/02 13:34:17;;;;;;;1.55;0.20;;;16.00;69.90;;;;;;4995114;28;20080;-76
2021/11/02 13:36:43;;;;;;;0.55;0.20;;;16.00;69.70;;;;;;4994959;28;20049;-76
2021/11/02 13:39:14;;;;;;;0.82;0.20;;;16.00;69.40;;;;;;4994485;28;20033;-76
2021/11/02 13:41:49;;;;;;;0.20;0.17;;;16.00;69.30;;;;;;4994671;28;20315;-77
2021/11/02 13:44:17;;;;;;;2.47;0.28;;;15.90;68.70;;;;;;4993999;28;20022;-77
2021/11/02 13:46:48;;;;;;;0.68;0.30;;;15.90;68.60;;;;;;4993256;28;20085;-78
2021/11/02 13:49:15;;;;;;;0.10;0.10;;;15.90;69.40;;;;;;4994709;28;20395;-79
2021/11/02 13:51:41;;;;;;;47.15;18.73;;;15.90;69.70;;;;;;4992126;28;20129;-75
2021/11/02 13:54:11;;;;;;;83.97;36.28;;;15.80;70.20;;;;;;4992102;28;20689;-75
2021/11/02 13:56:42;;;;;;;40.40;16.55;;;15.80;70.10;;;;;;4993521;28;20117;-79
2021/11/02 13:59:09;;;;;;;5.97;2.80;;;15.80;69.50;;;;;;4994602;28;20062;-80
2021/11/02 14:01:45;;;;;;;3.97;1.38;;;15.80;68.80;;;;;;4994961;28;20375;-79
2021/11/02 14:04:16;;;;;;;4.07;1.48;;;15.80;69.80;;;;;;4994392;28;20046;-75
2021/11/02 14:07:08;;;;;;;4.88;2.38;;;15.80;70.40;;;;;;4994317;28;20169;-76
2021/11/02 14:09:39;;;;;;;4.07;1.30;;;15.90;72.10;;;;;;4978590;28;20499;-76
2021/11/02 14:12:26;;;;;;;2.72;1.50;;;15.90;74.90;;;;;;4994567;28;20035;-77
2021/11/02 14:15:14;;;;;;;4.75;2.40;;;15.90;74.20;;;;;;4994386;28;20018;-77
2021/11/02 14:18:08;;;;;;;17.52;7.07;;;16.00;73.50;;;;;;4994410;28;20076;-77
2021/11/02 14:20:36;;;;;;;20.52;8.40;;;15.90;71.70;;;;;;4994432;28;20025;-77
2021/11/02 14:23:05;;;;;;;5.18;2.10;;;15.90;72.80;;;;;;4994189;28;20502;-75
2021/11/02 14:25:37;;;;;;;12.65;4.32;;;15.90;72.50;;;;;;4994222;28;20122;-76
2021/11/02 14:28:05;;;;;;;11.32;6.10;;;15.90;71.80;;;;;;4993721;28;20027;-77
2021/11/02 14:30:37;;;;;;;11.25;5.10;;;15.90;73.80;;;;;;4994279;28;20022;-77
2021/11/02 14:33:16;;;;;;;;;;;15.90;72.90;;;;;;4994363;28;20045;-76
2021/11/02 14:35:47;;;;;;;21.95;10.55;;;15.90;73.60;;;;;;4993950;28;19906;-76
2021/11/02 14:38:16;;;;;;;11.77;5.87;;;15.80;72.70;;;;;;4993950;28;20030;-77
2021/11/02 14:41:22;;;;;;;2.33;1.10;;;15.80;73.00;;;;;;4993812;28;20299;-77
2021/11/02 14:43:48;;;;;;;1.42;0.57;;;15.70;73.30;;;;;;4961216;28;20038;-77
2021/11/02 14:46:20;;;;;;;4.85;2.70;;;15.70;74.40;;;;;;4993811;28;20117;-77
2021/11/02 14:48:48;;;;;;;6.88;3.20;;;15.70;74.10;;;;;;4993998;28;20033;-78
2021/11/02 14:51:17;;;;;;;6.30;2.90;;;15.70;74.50;;;;;;4993714;28;20030;-76
2021/11/02 14:53:44;;;;;;;9.32;3.42;;;15.70;73.70;;;;;;4993796;28;20058;-76
2021/11/02 14:56:12;;;;;;;5.88;2.83;;;15.70;73.50;;;;;;4993390;28;20501;-76
2021/11/02 14:58:42;;;;;;;6.03;3.35;;;15.60;73.70;;;;;;4993335;28;20025;-75
2021/11/02 15:01:25;;;;;;;8.75;2.72;;;15.60;74.00;;;;;;4993392;28;20018;-78
2021/11/02 15:03:55;;;;;;;3.28;1.80;;;15.60;73.80;;;;;;4992977;28;20101;-78
2021/11/02 15:06:27;;;;;;;1.42;0.88;;;15.60;74.10;;;;;;4993253;28;20077;-78
2021/11/02 15:08:54;;;;;;;4.75;0.70;;;15.60;73.90;;;;;;4993366;28;20097;-76
2021/11/02 15:11:19;;;;;;;2.97;0.75;;;15.60;73.90;;;;;;4993524;28;20105;-77
2021/11/02 15:14:00;;;;;;;0.80;0.50;;;15.50;73.70;;;;;;4993201;28;20026;-78
2021/11/02 15:16:26;;;;;;;0.98;0.52;;;15.50;74.00;;;;;;4993276;28;20080;-78
2021/11/02 15:19:00;;;;;;;0.80;0.50;;;15.50;74.30;;;;;;4993307;28;20348;-78
2021/11/02 15:21:29;;;;;;;2.65;0.50;;;15.50;74.40;;;;;;4993155;28;20423;-77
2021/11/02 15:23:55;;;;;;;2.40;0.43;;;15.50;74.20;;;;;;4993428;28;20027;-77
2021/11/02 15:26:20;;;;;;;2.13;0.68;;;15.50;74.20;;;;;;4992864;28;20118;-77
2021/11/02 15:28:49;;;;;;;1.08;0.40;;;15.50;74.50;;;;;;4992636;28;20117;-77
2021/11/02 15:31:21;;;;;;;1.10;0.68;;;15.40;74.70;;;;;;4992747;28;20030;-78
2021/11/02 15:33:47;;;;;;;4.25;0.80;;;15.40;74.90;;;;;;4993360;28;20449;-78
2021/11/02 15:36:15;;;;;;;1.15;0.50;;;15.40;74.90;;;;;;4993239;28;20122;-77
2021/11/02 15:38:41;;;;;;;0.90;0.60;;;15.30;75.00;;;;;;4993474;28;20386;-77
2021/11/02 15:41:21;;;;;;;0.95;0.80;;;15.30;75.30;;;;;;4993104;28;20042;-77
2021/11/02 15:43:55;;;;;;;2.78;1.00;;;15.30;75.60;;;;;;4992944;28;20027;-77
2021/11/02 15:46:40;;;;;;;6.43;1.13;;;15.20;75.80;;;;;;4992821;28;20089;-76
2021/11/02 15:49:10;;;;;;;1.50;1.00;;;15.20;76.10;;;;;;4993136;28;20113;-77
2021/11/02 15:51:40;;;;;;;2.72;0.90;;;15.20;76.50;;;;;;4992010;28;20065;-77
2021/11/02 15:54:11;;;;;;;1.70;0.90;;;15.20;76.90;;;;;;4993037;28;20475;-77
2021/11/02 15:56:38;;;;;;;2.27;1.00;;;15.10;77.50;;;;;;5008308;28;20033;-76
2021/11/02 15:59:06;;;;;;;4.25;1.02;;;15.10;77.60;;;;;;4992935;28;20054;-76
2021/11/02 16:01:32;;;;;;;5.57;1.15;;;15.10;77.50;;;;;;4992528;28;20027;-76
2021/11/02 16:04:13;;;;;;;2.05;1.27;;;15.10;77.50;;;;;;5012470;22;20491;-79
2021/11/02 16:06:58;;;;;;;3.55;1.25;;;15.20;80.90;;;;;;5010897;28;20132;-79
2021/11/02 16:09:42;;;;;;;4.05;1.90;;;;;;;;;;5014721;28;20026;-80
2021/11/02 16:12:39;;;;;;;5.70;2.08;;;;;;;;;;5016361;28;20057;-80
2021/11/02 16:15:14;;;;;;;2.97;2.13;;;15.10;83.20;;;;;;5003425;28;20037;-80
2021/11/02 16:17:43;;;;;;;3.92;2.58;;;15.10;87.00;;;;;;5015586;28;20025;-80
2021/11/02 16:20:16;;;;;;;7.07;3.20;;;15.10;89.60;;;;;;5015965;28;20022;-80
2021/11/02 16:23:10;;;;;;;5.18;3.17;;;15.10;89.20;;;;;;5016368;28;20030;-80
2021/11/02 16:25:42;;;;;;;3.67;2.60;;;15.00;88.80;;;;;;5014171;28;20045;-80
2021/11/02 16:28:21;;;;;;;8.48;2.45;;;15.10;90.80;;;;;;5015616;28;20076;-79
2021/11/02 16:30:53;;;;;;;5.50;2.00;;;15.00;93.10;;;;;;5014335;28;20441;-77
2021/11/02 16:33:31;;;;;;;5.85;2.20;;;15.00;83.90;;;;;;5013227;28;20132;-78
2021/11/02 16:35:57;;;;;;;5.55;2.08;;;14.80;79.60;;;;;;5013486;28;20033;-81
2021/11/02 16:38:37;;;;;;;5.65;2.10;;;14.80;80.20;;;;;;5015789;28;20038;-80
2021/11/02 16:41:17;;;;;;;4.07;2.00;;;14.80;80.60;;;;;;5015966;28;20030;-79
2021/11/02 16:43:53;;;;;;;6.18;2.35;;;14.80;80.80;;;;;;5015797;28;20385;-79
2021/11/02 16:46:26;;;;;;;3.65;2.10;;;14.70;81.00;;;;;;5014659;28;20030;-78
2021/11/02 16:49:05;;;;;;;3.78;1.77;;;14.70;81.60;;;;;;5014453;28;20030;-79
2021/11/02 16:51:48;;;;;;;7.38;1.55;;;14.70;81.80;;;;;;5014195;28;20092;-79
2021/11/02 16:54:31;;;;;;;3.60;1.40;;;14.70;81.50;;;;;;5014922;28;20437;-80
2021/11/02 16:57:02;;;;;;;8.63;1.27;;;14.70;81.80;;;;;;5015019;28;20076;-79
2021/11/02 16:59:40;;;;;;;5.22;1.20;;;14.70;82.20;;;;;;5014950;28;20022;-71
2021/11/02 17:02:37;;;;;;;3.15;1.48;;;14.70;82.40;;;;;;5015115;28;20471;-78
2021/11/02 17:05:09;;;;;;;3.05;0.95;;;14.60;83.30;;;;;;5014746;28;20441;-74
2021/11/02 17:07:36;;;;;;;4.43;1.27;;;14.60;83.60;;;;;;5014673;28;20121;-80
2021/11/02 17:10:17;;;;;;;4.63;1.40;;;14.60;83.60;;;;;;5014472;28;20018;-81
2021/11/02 17:12:47;;;;;;;2.55;1.38;;;14.50;84.00;;;;;;5015135;28;20060;-79
2021/11/02 17:15:20;;;;;;;4.82;1.60;;;14.50;84.20;;;;;;5014573;28;20022;-78
2021/11/02 17:17:46;;;;;;;3.47;2.00;;;14.50;84.10;;;;;;5014860;28;20053;-79
2021/11/02 17:20:14;;;;;;;6.28;3.17;;;14.50;84.60;;;;;;5012577;28;20072;-79
2021/11/02 17:22:39;;;;;;;5.70;2.35;;;14.50;84.30;;;;;;5014200;28;20033;-78
2021/11/02 17:25:06;;;;;;;9.05;2.75;;;14.40;84.30;;;;;;5013856;28;20022;-79
2021/11/02 17:27:33;;;;;;;6.47;2.50;;;14.40;84.80;;;;;;5014037;28;20493;-80
2021/11/02 17:29:59;;;;;;;7.65;2.70;;;14.40;85.30;;;;;;5014107;28;20022;-79
2021/11/02 17:32:25;;;;;;;5.75;2.85;;;14.40;85.50;;;;;;5014292;28;20470;-80
2021/11/02 17:34:51;;;;;;;4.85;3.03;;;14.40;86.70;;;;;;5009533;28;20022;-79
2021/11/02 17:37:17;;;;;;;9.10;4.50;;;14.30;85.80;;;;;;4994271;28;20038;-79
2021/11/02 17:39:44;;;;;;;10.20;5.40;;;14.20;86.10;;;;;;4994612;28;20030;-78
2021/11/02 17:42:10;;;;;;;9.05;5.85;;;14.30;86.80;;;;;;4995391;28;20068;-82
2021/11/02 17:44:37;;;;;;;11.68;7.07;;;14.30;93.60;;;;;;4994889;28;20037;-82
2021/11/02 17:47:09;;;;;;;15.07;9.30;;;14.30;93.40;;;;;;4994723;28;20045;-82
2021/11/02 17:49:36;;;;;;;12.55;6.95;;;14.30;91.80;;;;;;4994793;28;20498;-79
2021/11/02 17:52:03;;;;;;;15.07;7.32;;;14.20;90.40;;;;;;4994143;28;20032;-82
2021/11/02 17:54:29;;;;;;;9.13;6.40;;;14.20;91.40;;;;;;4994571;28;20493;-80
2021/11/02 17:56:55;;;;;;;10.73;7.03;;;14.20;93.60;;;;;;4994619;28;20058;-80
2021/11/02 17:59:23;;;;;;;10.48;6.50;;;14.20;97.50;;;;;;4994697;28;20030;-80
2021/11/02 18:01:51;;;;;;;14.30;7.15;;;14.10;92.30;;;;;;4994905;28;20430;-80
2021/11/02 18:04:18;;;;;;;10.10;7.00;;;14.10;94.80;;;;;;4994351;28;20046;-79
2021/11/02 18:06:44;;;;;;;15.18;8.18;;;14.10;95.50;;;;;;4994344;28;20091;-79
2021/11/02 18:09:12;;;;;;;14.32;9.30;;;14.10;90.50;;;;;;4993908;28;20022;-79
2021/11/02 18:11:38;;;;;;;16.65;9.20;;;14.10;90.30;;;;;;4998911;28;20026;-80